createdAt,value
2023-09-24T00:00:42.199Z,95.8
2023-09-24T00:02:12.620Z,95.6
2023-09-24T00:03:43.233Z,95.7
2023-09-24T00:05:13.806Z,95.7
2023-09-24T00:06:44.198Z,95.5
2023-09-24T00:08:14.628Z,95.4
2023-09-24T00:09:45.034Z,95.4
2023-09-24T00:11:15.457Z,95.5
2023-09-24T00:12:45.995Z,95.4
2023-09-24T00:14:16.459Z,95.5
2023-09-24T00:15:47.017Z,95.5
2023-09-24T00:17:17.468Z,95.6
2023-09-24T00:18:48.015Z,95.5
2023-09-24T00:20:18.557Z,95.5
2023-09-24T00:21:49.111Z,95.5
2023-09-24T00:23:19.547Z,95.4
2023-09-24T00:24:49.948Z,95.5
2023-09-24T00:26:20.538Z,95.5
2023-09-24T00:27:50.998Z,95.5
2023-09-24T00:29:21.426Z,95.3
2023-09-24T00:30:51.970Z,95.5
2023-09-24T00:32:22.538Z,95.3
2023-09-24T00:33:53.074Z,95.5
2023-09-24T00:35:23.717Z,95.6
2023-09-24T00:36:54.350Z,95.3
2023-09-24T00:38:24.815Z,95.2
2023-09-24T00:39:55.393Z,95.2
2023-09-24T00:41:25.871Z,95.3
2023-09-24T00:41:43.769Z,95.4
2023-09-24T00:43:14.480Z,95.5
2023-09-24T00:44:44.984Z,95.3
2023-09-24T00:46:15.575Z,95.4
2023-09-24T00:47:46.262Z,95.5
2023-09-24T00:49:16.903Z,95.4
2023-09-24T00:50:47.497Z,95.4
2023-09-24T00:52:17.923Z,95.3
2023-09-24T00:53:48.853Z,95.4
2023-09-24T00:55:20.036Z,95.3
2023-09-24T00:56:50.693Z,95.1
2023-09-24T00:58:21.248Z,95.3
2023-09-24T00:59:51.723Z,95.2
2023-09-24T01:01:22.471Z,95.4
2023-09-24T01:02:53.418Z,95.4
2023-09-24T01:04:24.583Z,95.4
2023-09-24T01:05:55.509Z,95.3
2023-09-24T01:07:26.075Z,95.2
2023-09-24T01:08:56.590Z,95.1
2023-09-24T01:10:27.174Z,95.1
2023-09-24T01:11:57.663Z,95.3
2023-09-24T01:13:28.250Z,95.4
2023-09-24T01:14:58.818Z,95.1
2023-09-24T01:16:29.372Z,95.1
2023-09-24T01:18:00.065Z,95.3
2023-09-24T01:19:30.641Z,95.4
2023-09-24T01:21:01.372Z,95.1
2023-09-24T01:22:32.087Z,95.4
2023-09-24T01:24:02.659Z,95.1
2023-09-24T01:25:33.290Z,94.9
2023-09-24T01:27:03.826Z,95.2
2023-09-24T01:28:34.334Z,95.2
2023-09-24T01:30:04.844Z,95.3
2023-09-24T01:31:35.335Z,94.9
2023-09-24T01:33:06.155Z,95.3
2023-09-24T01:34:37.190Z,95
2023-09-24T01:36:07.624Z,95
2023-09-24T01:37:38.032Z,95.3
2023-09-24T01:39:08.547Z,95.1
2023-09-24T01:40:38.988Z,95
2023-09-24T01:42:09.581Z,95
2023-09-24T01:43:40.017Z,94.9
2023-09-24T01:45:10.457Z,95
2023-09-24T01:46:41.106Z,95.1
2023-09-24T01:48:11.855Z,95
2023-09-24T01:49:42.413Z,95.2
2023-09-24T01:51:13.073Z,95.1
2023-09-24T01:52:43.609Z,95.2
2023-09-24T01:54:14.090Z,95.4
2023-09-24T01:55:44.529Z,95
2023-09-24T01:57:15.064Z,95.3
2023-09-24T01:58:45.557Z,94.9
2023-09-24T02:00:16.078Z,95.3
2023-09-24T02:03:27.800Z,95.3
2023-09-24T02:04:58.508Z,95.3
2023-09-24T02:06:29.074Z,95.2
2023-09-24T02:07:59.543Z,95.3
2023-09-24T02:09:30.082Z,95
2023-09-24T02:11:00.671Z,95.3
2023-09-24T02:12:31.112Z,95.2
2023-09-24T02:14:01.527Z,95.2
2023-09-24T02:15:31.954Z,95.1
2023-09-24T02:17:02.467Z,95.2
2023-09-24T02:18:33.020Z,95
2023-09-24T02:20:04.044Z,95
2023-09-24T02:21:34.566Z,95.2
2023-09-24T02:23:04.977Z,95.3
2023-09-24T02:24:35.714Z,95.3
2023-09-24T02:26:06.213Z,95
2023-09-24T02:27:36.633Z,95.2
2023-09-24T02:29:07.068Z,95
2023-09-24T02:30:37.777Z,95.4
2023-09-24T02:32:08.513Z,95.1
2023-09-24T02:33:39.202Z,95.3
2023-09-24T02:35:09.969Z,95.4
2023-09-24T02:36:40.529Z,95.3
2023-09-24T02:38:11.676Z,95.2
2023-09-24T02:39:42.255Z,95.2
2023-09-24T02:41:12.777Z,95.1
2023-09-24T02:42:43.313Z,95.3
2023-09-24T02:44:13.824Z,95.2
2023-09-24T02:45:44.342Z,95.2
2023-09-24T02:47:14.775Z,95.4
2023-09-24T02:48:45.430Z,95.5
2023-09-24T02:50:16.255Z,95.2
2023-09-24T02:51:46.808Z,95.1
2023-09-24T02:53:17.286Z,95.2
2023-09-24T02:54:47.791Z,95.1
2023-09-24T02:56:18.211Z,95.3
2023-09-24T02:57:48.742Z,95.2
2023-09-24T02:59:19.258Z,95
2023-09-24T03:00:49.775Z,95.2
2023-09-24T03:02:20.352Z,95.2
2023-09-24T03:03:51.484Z,94.7
2023-09-24T03:05:23.088Z,95.3
2023-09-24T03:06:53.648Z,94.9
2023-09-24T03:08:24.164Z,94.7
2023-09-24T03:09:54.652Z,95
2023-09-24T03:11:25.136Z,95.1
2023-09-24T03:12:55.692Z,95.2
2023-09-24T03:14:26.236Z,95.2
2023-09-24T03:15:56.790Z,95
2023-09-24T03:17:27.450Z,95.2
2023-09-24T03:18:57.991Z,95
2023-09-24T03:20:28.492Z,95
2023-09-24T03:21:59.010Z,95.2
2023-09-24T03:23:29.509Z,95
2023-09-24T03:25:00.052Z,95.3
2023-09-24T03:26:30.579Z,95.2
2023-09-24T03:28:01.140Z,94.8
2023-09-24T03:29:32.028Z,94.9
2023-09-24T03:31:02.602Z,95.3
2023-09-24T03:32:33.183Z,95.1
2023-09-24T03:34:03.751Z,95.2
2023-09-24T03:35:34.315Z,95.2
2023-09-24T03:37:04.844Z,95.1
2023-09-24T03:38:35.394Z,95.2
2023-09-24T03:40:05.824Z,95
2023-09-24T03:41:36.325Z,95
2023-09-24T03:43:06.767Z,95.1
2023-09-24T03:44:37.203Z,95.1
2023-09-24T03:46:07.694Z,95.1
2023-09-24T03:47:38.200Z,95.1
2023-09-24T03:49:08.775Z,95.1
2023-09-24T03:50:39.340Z,95.2
2023-09-24T03:52:09.872Z,95
2023-09-24T03:52:26.774Z,95
2023-09-24T03:53:57.220Z,94.7
2023-09-24T03:55:27.703Z,95
2023-09-24T03:56:58.199Z,95.1
2023-09-24T03:58:28.660Z,94.9
2023-09-24T03:59:59.356Z,94.8
2023-09-24T04:01:29.878Z,94.9
2023-09-24T04:03:00.583Z,94.9
2023-09-24T04:04:31.194Z,95
2023-09-24T04:06:01.736Z,95
2023-09-24T04:07:32.233Z,95.1
2023-09-24T04:09:02.796Z,95.2
2023-09-24T04:10:33.333Z,95
2023-09-24T04:12:03.828Z,95.1
2023-09-24T04:13:34.834Z,95.1
2023-09-24T04:15:05.422Z,95.1
2023-09-24T04:16:36.088Z,94.9
2023-09-24T04:18:06.743Z,95.1
2023-09-24T04:19:37.406Z,94.8
2023-09-24T04:21:08.493Z,95.1
2023-09-24T04:22:39.089Z,95.3
2023-09-24T04:24:09.630Z,95.1
2023-09-24T04:25:40.196Z,95.2
2023-09-24T04:27:10.674Z,95.2
2023-09-24T04:28:41.149Z,95.2
2023-09-24T04:30:11.568Z,95
2023-09-24T04:31:41.959Z,94.9
2023-09-24T04:33:12.692Z,95.2
2023-09-24T04:34:43.297Z,95.2
2023-09-24T04:36:13.767Z,95.1
2023-09-24T04:37:44.210Z,95
2023-09-24T04:39:14.693Z,95.2
2023-09-24T04:40:45.135Z,95.1
2023-09-24T04:42:15.556Z,95
2023-09-24T04:43:46.258Z,95.1
2023-09-24T04:45:17.550Z,94.9
2023-09-24T04:46:48.242Z,95.4
2023-09-24T04:48:18.908Z,94.8
2023-09-24T04:49:49.495Z,95.1
2023-09-24T04:51:19.920Z,95.1
2023-09-24T04:52:51.115Z,95.1
2023-09-24T04:54:21.564Z,94.9
2023-09-24T04:55:51.999Z,95
2023-09-24T04:57:22.450Z,95
2023-09-24T04:58:52.936Z,94.9
2023-09-24T05:00:23.369Z,95.2
2023-09-24T05:01:53.776Z,95.1
2023-09-24T05:03:24.449Z,95.1
2023-09-24T05:04:55.513Z,95.1
2023-09-24T05:06:26.420Z,95.1
2023-09-24T05:07:57.010Z,95.2
2023-09-24T05:09:29.813Z,94.9
2023-09-24T05:11:00.289Z,94.8
2023-09-24T05:12:30.810Z,95.2
2023-09-24T05:14:01.346Z,95.1
2023-09-24T05:15:31.746Z,95
2023-09-24T05:17:02.261Z,95.1
2023-09-24T05:18:32.916Z,95
2023-09-24T05:20:03.529Z,95.3
2023-09-24T05:21:34.043Z,95.1
2023-09-24T05:23:04.647Z,95
2023-09-24T05:24:35.095Z,95.3
2023-09-24T05:26:05.611Z,95.2
2023-09-24T05:27:36.042Z,94.9
2023-09-24T05:29:06.457Z,95.1
2023-09-24T05:30:36.948Z,95.2
2023-09-24T05:32:07.409Z,94.9
2023-09-24T05:33:38.173Z,95.3
2023-09-24T05:35:08.905Z,94.9
2023-09-24T05:36:39.376Z,95
2023-09-24T05:38:09.840Z,95.1
2023-09-24T05:39:40.429Z,95.2
2023-09-24T05:41:10.846Z,94.9
2023-09-24T05:41:27.872Z,94.8
2023-09-24T05:42:58.321Z,95.2
2023-09-24T05:44:28.839Z,95.1
2023-09-24T05:45:59.430Z,95
2023-09-24T05:47:30.172Z,95.1
2023-09-24T05:49:00.816Z,95.1
2023-09-24T05:50:31.327Z,95
2023-09-24T05:52:01.780Z,95
2023-09-24T05:53:32.364Z,95.1
2023-09-24T05:55:02.933Z,95.2
2023-09-24T05:56:33.484Z,95.1
2023-09-24T05:58:04.071Z,95
2023-09-24T05:59:34.640Z,95.1
2023-09-24T06:01:05.222Z,94.9
2023-09-24T06:02:35.811Z,95.1
2023-09-24T06:04:06.632Z,94.8
2023-09-24T06:05:37.414Z,95.2
2023-09-24T06:07:07.900Z,95.1
2023-09-24T06:08:38.419Z,95.1
2023-09-24T06:10:08.990Z,94.9
2023-09-24T06:11:39.542Z,94.6
2023-09-24T06:13:11.117Z,95.1
2023-09-24T06:14:41.791Z,95
2023-09-24T06:16:12.430Z,95.2
2023-09-24T06:17:43.592Z,95.2
2023-09-24T06:19:15.072Z,95
2023-09-24T06:20:45.960Z,95.1
2023-09-24T06:22:16.631Z,95.2
2023-09-24T06:23:47.690Z,95.1
2023-09-24T06:25:18.699Z,95.2
2023-09-24T06:26:49.314Z,95.2
2023-09-24T06:28:19.842Z,95.2
2023-09-24T06:29:50.340Z,95.1
2023-09-24T06:31:20.794Z,95.4
2023-09-24T06:32:51.368Z,95.2
2023-09-24T06:34:22.041Z,95.3
2023-09-24T06:35:52.588Z,95.6
2023-09-24T06:37:23.185Z,95.3
2023-09-24T06:38:53.780Z,95.5
2023-09-24T06:40:24.321Z,95.4
2023-09-24T06:41:54.797Z,95.6
2023-09-24T06:43:25.301Z,95.5
2023-09-24T06:44:55.857Z,95.4
2023-09-24T06:46:26.497Z,95.6
2023-09-24T06:47:57.241Z,95.4
2023-09-24T06:49:27.865Z,95.3
2023-09-24T06:50:58.547Z,95.5
2023-09-24T06:52:29.159Z,95.6
2023-09-24T06:53:59.721Z,95.4
2023-09-24T06:55:30.373Z,95.4
2023-09-24T06:57:00.946Z,95.3
2023-09-24T06:58:31.532Z,95.4
2023-09-24T07:00:02.103Z,95.5
2023-09-24T07:01:32.670Z,95.6
2023-09-24T07:03:03.418Z,95.4
2023-09-24T07:04:34.190Z,95.5
2023-09-24T07:06:04.977Z,95.5
2023-09-24T07:07:35.693Z,95.2
2023-09-24T07:09:06.271Z,95.5
2023-09-24T07:10:36.722Z,95.2
2023-09-24T07:12:07.204Z,95.4
2023-09-24T07:13:37.673Z,95.6
2023-09-24T07:15:08.177Z,95.7
2023-09-24T07:16:38.643Z,95.4
2023-09-24T07:18:09.207Z,95.5
2023-09-24T07:19:39.960Z,95.4
2023-09-24T07:21:31.538Z,95.4
2023-09-24T07:23:05.987Z,95.3
2023-09-24T07:24:36.485Z,95.5
2023-09-24T07:26:06.955Z,95.4
2023-09-24T07:27:37.465Z,95.7
2023-09-24T07:29:07.888Z,95.5
2023-09-24T07:30:38.329Z,95.4
2023-09-24T07:33:56.283Z,95.3
2023-09-24T07:35:26.954Z,95.5
2023-09-24T07:37:15.179Z,95.3
2023-09-24T07:38:45.921Z,95.2
2023-09-24T07:40:16.450Z,95.4
2023-09-24T07:41:46.941Z,95.5
2023-09-24T07:43:17.449Z,95.6
2023-09-24T07:44:47.937Z,95.8
2023-09-24T07:46:18.391Z,95.5
2023-09-24T07:47:48.904Z,95.7
2023-09-24T07:49:19.541Z,95.4
2023-09-24T07:50:50.078Z,95.6
2023-09-24T07:52:20.603Z,95.5
2023-09-24T07:53:51.640Z,95.5
2023-09-24T07:55:22.362Z,95.5
2023-09-24T07:56:52.955Z,95.5
2023-09-24T07:58:23.426Z,95.5
2023-09-24T07:59:53.980Z,95.4
2023-09-24T08:03:15.726Z,95.6
2023-09-24T08:04:46.421Z,95.6
2023-09-24T08:06:16.960Z,95.7
2023-09-24T08:07:47.445Z,95.7
2023-09-24T08:09:28.206Z,95.7
2023-09-24T08:10:58.790Z,95.3
2023-09-24T08:12:29.336Z,95.7
2023-09-24T08:13:59.784Z,95.6
2023-09-24T08:15:34.149Z,95.7
2023-09-24T08:17:05.096Z,95.7
2023-09-24T08:18:35.705Z,95.6
2023-09-24T08:20:06.340Z,95.6
2023-09-24T08:21:36.764Z,95.3
2023-09-24T08:23:07.195Z,95.5
2023-09-24T08:24:37.801Z,95.5
2023-09-24T08:26:08.290Z,95.5
2023-09-24T08:27:38.753Z,95.6
2023-09-24T08:29:09.620Z,95.5
2023-09-24T08:30:40.108Z,95.6
2023-09-24T08:32:10.520Z,95.5
2023-09-24T08:33:41.065Z,95.5
2023-09-24T08:35:11.576Z,95.6
2023-09-24T08:36:41.999Z,95.6
2023-09-24T08:38:12.405Z,95.6
2023-09-24T08:39:42.822Z,95.8
2023-09-24T08:41:13.529Z,95.6
2023-09-24T08:42:43.979Z,95.7
2023-09-24T08:44:14.753Z,95.5
2023-09-24T08:45:45.250Z,95.2
2023-09-24T08:47:15.644Z,95.3
2023-09-24T08:48:46.281Z,95.4
2023-09-24T08:50:17.232Z,95.3
2023-09-24T08:51:47.718Z,95.5
2023-09-24T08:53:18.144Z,95.5
2023-09-24T08:54:48.587Z,95.6
2023-09-24T08:56:19.173Z,95.4
2023-09-24T08:57:49.611Z,95.5
2023-09-24T08:59:20.040Z,95.7
2023-09-24T09:00:50.568Z,95.6
2023-09-24T09:02:21.081Z,95.3
2023-09-24T09:03:52.150Z,95.4
2023-09-24T09:05:22.836Z,95.4
2023-09-24T09:06:53.280Z,95.5
2023-09-24T09:08:23.829Z,95.3
2023-09-24T09:09:54.317Z,95.6
2023-09-24T09:11:24.796Z,95.3
2023-09-24T09:12:55.294Z,95.6
2023-09-24T09:14:25.779Z,95.4
2023-09-24T09:15:56.190Z,95.3
2023-09-24T09:17:26.646Z,95.4
2023-09-24T09:18:57.241Z,95.5
2023-09-24T09:20:27.653Z,95.7
2023-09-24T09:21:58.223Z,95.3
2023-09-24T09:23:28.840Z,95.2
2023-09-24T09:24:59.319Z,95.3
2023-09-24T09:26:30.092Z,95.3
2023-09-24T09:28:00.597Z,95.2
2023-09-24T09:29:31.000Z,95.5
2023-09-24T09:31:01.510Z,95.3
2023-09-24T09:32:32.173Z,95.3
2023-09-24T09:34:02.660Z,95.3
2023-09-24T09:35:33.086Z,95.5
2023-09-24T09:37:03.624Z,95.7
2023-09-24T09:38:34.040Z,95.5
2023-09-24T09:40:04.550Z,95.7
2023-09-24T09:41:35.133Z,95.7
2023-09-24T09:43:05.604Z,95.6
2023-09-24T09:44:36.050Z,95.6
2023-09-24T09:46:06.616Z,95.7
2023-09-24T09:47:37.386Z,95.6
2023-09-24T09:49:07.997Z,95.7
2023-09-24T09:50:38.576Z,95.5
2023-09-24T09:52:09.234Z,95.7
2023-09-24T09:53:56.930Z,95.5
2023-09-24T09:55:27.391Z,95.8
2023-09-24T09:56:58.092Z,95.5
2023-09-24T09:58:30.580Z,95.4
2023-09-24T10:00:01.196Z,95.4
2023-09-24T10:01:31.806Z,95.2
2023-09-24T10:03:02.905Z,95.5
2023-09-24T10:04:36.953Z,95.3
2023-09-24T10:06:07.815Z,95.2
2023-09-24T10:07:38.330Z,95.4
2023-09-24T10:09:08.821Z,95.3
2023-09-24T10:10:39.292Z,95.4
2023-09-24T10:12:09.983Z,95.7
2023-09-24T10:13:40.426Z,95.6
2023-09-24T10:15:10.979Z,95.7
2023-09-24T10:16:42.010Z,95.4
2023-09-24T10:18:12.752Z,95.2
2023-09-24T10:19:43.462Z,95.5
2023-09-24T10:21:14.045Z,95.4
2023-09-24T10:22:44.592Z,95.6
2023-09-24T10:24:15.294Z,95.7
2023-09-24T10:25:46.046Z,95.7
2023-09-24T10:27:16.650Z,95.4
2023-09-24T10:28:47.487Z,95.4
2023-09-24T10:30:18.502Z,95.6
2023-09-24T10:31:49.081Z,95.7
2023-09-24T10:33:19.575Z,95.4
2023-09-24T10:34:50.220Z,95.4
2023-09-24T10:36:20.612Z,95.6
2023-09-24T10:37:51.039Z,95.7
2023-09-24T10:39:21.514Z,95.6
2023-09-24T10:40:51.984Z,95.4
2023-09-24T10:42:22.473Z,95.6
2023-09-24T10:43:52.930Z,95.2
2023-09-24T10:45:23.382Z,95.5
2023-09-24T10:47:00.138Z,95.4
2023-09-24T10:48:53.610Z,95.3
2023-09-24T10:50:24.553Z,95.5
2023-09-24T10:51:55.076Z,95.4
2023-09-24T10:53:25.582Z,95.6
2023-09-24T10:54:55.974Z,95.4
2023-09-24T10:56:28.028Z,95.5
2023-09-24T10:57:58.537Z,95.5
2023-09-24T10:59:28.971Z,95.6
2023-09-24T11:00:59.495Z,95.5
2023-09-24T11:02:30.186Z,95.5
2023-09-24T11:04:00.940Z,95.7
2023-09-24T11:05:31.690Z,95.4
2023-09-24T11:07:02.216Z,95.5
2023-09-24T11:08:32.628Z,95.4
2023-09-24T11:10:03.065Z,95.4
2023-09-24T11:11:33.473Z,95.5
2023-09-24T11:13:03.958Z,95.2
2023-09-24T11:14:34.406Z,95.3
2023-09-24T11:16:04.914Z,95.5
2023-09-24T11:17:35.641Z,95.6
2023-09-24T11:19:06.119Z,95.6
2023-09-24T11:20:36.819Z,95.5
2023-09-24T11:22:07.439Z,95.5
2023-09-24T11:23:37.925Z,95.3
2023-09-24T11:25:08.825Z,95.5
2023-09-24T11:26:39.374Z,95.3
2023-09-24T11:28:09.899Z,95.6
2023-09-24T11:29:40.528Z,95.6
2023-09-24T11:31:11.041Z,95.7
2023-09-24T11:32:41.604Z,95.2
2023-09-24T11:34:12.224Z,95.3
2023-09-24T11:35:42.704Z,95.3
2023-09-24T11:37:13.164Z,95.3
2023-09-24T11:38:43.653Z,95.4
2023-09-24T11:40:14.240Z,95.4
2023-09-24T11:41:46.289Z,95.3
2023-09-24T11:42:05.309Z,95.5
2023-09-24T11:43:37.223Z,95.3
2023-09-24T11:45:07.830Z,95.4
2023-09-24T11:46:38.457Z,95.5
2023-09-24T11:48:09.311Z,95.4
2023-09-24T11:49:39.967Z,95.7
2023-09-24T11:51:10.759Z,95.5
2023-09-24T11:52:41.305Z,95.5
2023-09-24T11:54:11.812Z,95.5
2023-09-24T11:55:42.402Z,95.5
2023-09-24T11:57:13.163Z,95.6
2023-09-24T11:58:43.765Z,95.5
2023-09-24T12:00:14.398Z,95.7
2023-09-24T12:01:44.956Z,95.6
2023-09-24T12:03:15.722Z,95.3
2023-09-24T12:04:46.821Z,95.5
2023-09-24T12:06:17.398Z,95.3
2023-09-24T12:07:47.971Z,95.3
2023-09-24T12:09:18.476Z,95.6
2023-09-24T12:10:48.963Z,95.4
2023-09-24T12:12:19.484Z,95.5
2023-09-24T12:13:50.111Z,95.5
2023-09-24T12:15:20.660Z,95.4
2023-09-24T12:16:51.209Z,95.3
2023-09-24T12:18:21.722Z,95.6
2023-09-24T12:19:52.352Z,95.3
2023-09-24T12:21:22.831Z,95.5
2023-09-24T12:22:53.430Z,95.6
2023-09-24T12:24:23.983Z,95.7
2023-09-24T12:25:54.454Z,95.6
2023-09-24T12:27:24.969Z,95.4
2023-09-24T12:28:55.462Z,95.1
2023-09-24T12:30:25.974Z,95.5
2023-09-24T12:31:56.436Z,95.4
2023-09-24T12:33:27.172Z,95.3
2023-09-24T12:34:57.793Z,95.4
2023-09-24T12:36:28.253Z,95.4
2023-09-24T12:37:58.804Z,95.4
2023-09-24T12:39:29.422Z,95.7
2023-09-24T12:40:59.884Z,95.7
2023-09-24T12:42:30.308Z,95.5
2023-09-24T12:44:00.745Z,95.1
2023-09-24T12:45:31.142Z,95.6
2023-09-24T12:47:01.630Z,95.7
2023-09-24T12:48:32.416Z,95.4
2023-09-24T12:50:03.121Z,95.6
2023-09-24T12:51:33.554Z,95.8
2023-09-24T12:53:04.067Z,95.3
2023-09-24T12:54:34.480Z,95.4
2023-09-24T12:56:04.924Z,95.4
2023-09-24T12:57:35.440Z,95.5
2023-09-24T12:59:06.074Z,95.6
2023-09-24T13:00:36.520Z,95.4
2023-09-24T13:02:07.080Z,95.6
2023-09-24T13:03:37.759Z,95.6
2023-09-24T13:05:08.486Z,95.6
2023-09-24T13:06:38.996Z,95.6
2023-09-24T13:08:09.497Z,95.6
2023-09-24T13:09:39.927Z,95.7
2023-09-24T13:11:10.449Z,95.4
2023-09-24T13:12:41.022Z,95.5
2023-09-24T13:14:11.553Z,95.6
2023-09-24T13:15:42.015Z,95.4
2023-09-24T13:17:12.530Z,95.4
2023-09-24T13:18:43.147Z,95.5
2023-09-24T13:20:14.093Z,95.6
2023-09-24T13:21:44.513Z,95.5
2023-09-24T13:23:14.933Z,95.5
2023-09-24T13:24:45.361Z,95.5
2023-09-24T13:26:15.874Z,95.4
2023-09-24T13:27:46.298Z,95.7
2023-09-24T13:29:16.753Z,95.6
2023-09-24T13:32:34.616Z,95.6
2023-09-24T13:34:05.099Z,95.7
2023-09-24T13:35:35.506Z,95.8
2023-09-24T13:37:05.947Z,95.8
2023-09-24T13:38:36.365Z,95.6
2023-09-24T13:40:07.759Z,95.7
2023-09-24T13:41:55.956Z,95.6
2023-09-24T13:43:26.481Z,95.9
2023-09-24T13:44:57.101Z,95.6
2023-09-24T13:46:27.825Z,95.4
2023-09-24T13:47:58.821Z,95.5
2023-09-24T13:49:29.309Z,95.3
2023-09-24T13:50:59.876Z,95.8
2023-09-24T13:52:30.311Z,95.6
2023-09-24T13:54:00.790Z,95.8
2023-09-24T13:55:31.351Z,95.8
2023-09-24T13:57:02.059Z,95.8
2023-09-24T13:58:32.601Z,95.8
2023-09-24T14:00:03.102Z,95.8
2023-09-24T14:03:19.143Z,95.5
2023-09-24T14:04:49.852Z,95.6
2023-09-24T14:06:20.419Z,95.5
2023-09-24T14:07:51.008Z,95.4
2023-09-24T14:09:21.642Z,95.8
2023-09-24T14:10:52.136Z,95.7
2023-09-24T14:12:23.068Z,95.7
2023-09-24T14:13:53.696Z,95.6
2023-09-24T14:15:24.410Z,95.7
2023-09-24T14:16:55.158Z,95.6
2023-09-24T14:18:25.983Z,95.7
2023-09-24T14:19:56.643Z,95.8
2023-09-24T14:21:27.173Z,95.7
2023-09-24T14:22:57.640Z,95.8
2023-09-24T14:24:28.138Z,95.9
2023-09-24T14:25:58.712Z,95.8
2023-09-24T14:27:29.227Z,95.6
2023-09-24T14:28:59.729Z,95.7
2023-09-24T14:30:30.250Z,95.4
2023-09-24T14:32:00.785Z,95.8
2023-09-24T14:33:31.376Z,95.8
2023-09-24T14:35:02.179Z,95.6
2023-09-24T14:36:32.675Z,95.5
2023-09-24T14:38:03.180Z,95.6
2023-09-24T14:39:33.622Z,95.8
2023-09-24T14:41:04.136Z,95.8
2023-09-24T14:42:34.758Z,95.4
2023-09-24T14:44:05.887Z,95.7
2023-09-24T14:45:36.345Z,95.7
2023-09-24T14:47:06.836Z,95.6
2023-09-24T14:48:37.363Z,95.7
2023-09-24T14:50:07.997Z,95.7
2023-09-24T14:51:38.811Z,95.5
2023-09-24T14:53:09.433Z,95.5
2023-09-24T14:54:39.867Z,95.6
2023-09-24T14:56:10.386Z,95.8
2023-09-24T14:57:40.901Z,95.6
2023-09-24T14:59:11.424Z,95.4
2023-09-24T15:00:41.948Z,95.8
2023-09-24T15:02:12.509Z,95.7
2023-09-24T15:03:43.152Z,95.9
2023-09-24T15:05:13.784Z,95.6
2023-09-24T15:06:47.807Z,95.8
2023-09-24T15:08:18.671Z,95.8
2023-09-24T15:09:49.170Z,95.8
2023-09-24T15:11:19.608Z,95.6
2023-09-24T15:12:50.145Z,95.6
2023-09-24T15:14:20.645Z,95.7
2023-09-24T15:15:51.131Z,95.8
2023-09-24T15:17:21.611Z,95.8
2023-09-24T15:18:52.169Z,95.8
2023-09-24T15:20:22.742Z,95.7
2023-09-24T15:21:53.385Z,95.7
2023-09-24T15:23:23.890Z,95.8
2023-09-24T15:24:54.403Z,95.5
2023-09-24T15:26:24.843Z,95.7
2023-09-24T15:27:55.361Z,95.7
2023-09-24T15:29:26.811Z,95.8
2023-09-24T15:31:00.266Z,95.8
2023-09-24T15:32:30.844Z,95.7
2023-09-24T15:34:01.519Z,95.8
2023-09-24T15:35:32.168Z,96
2023-09-24T15:37:02.701Z,95.6
2023-09-24T15:38:33.240Z,95.6
2023-09-24T15:40:03.773Z,95.8
2023-09-24T15:41:34.266Z,95.8
2023-09-24T15:43:04.775Z,95.6
2023-09-24T15:44:35.197Z,95.5
2023-09-24T15:46:05.740Z,95.8
2023-09-24T15:47:36.370Z,95.8
2023-09-24T15:49:06.875Z,95.6
2023-09-24T15:50:37.315Z,95.8
2023-09-24T15:52:07.849Z,96
2023-09-24T15:53:55.333Z,95.7
2023-09-24T15:55:25.878Z,95.5
2023-09-24T15:56:56.434Z,95.6
2023-09-24T15:58:26.922Z,95.6
2023-09-24T15:59:57.572Z,95.7
2023-09-24T16:01:28.141Z,95.7
2023-09-24T16:02:58.765Z,95.8
2023-09-24T16:04:29.510Z,95.7
2023-09-24T16:06:02.396Z,95.9
2023-09-24T16:07:33.016Z,95.9
2023-09-24T16:09:03.481Z,95.8
2023-09-24T16:10:34.097Z,96
2023-09-24T16:12:04.634Z,95.7
2023-09-24T16:13:35.110Z,95.7
2023-09-24T16:15:05.556Z,95.9
2023-09-24T16:16:36.237Z,95.9
2023-09-24T16:18:06.963Z,95.6
2023-09-24T16:19:37.816Z,95.7
2023-09-24T16:21:08.285Z,95.8
2023-09-24T16:22:38.994Z,95.6
2023-09-24T16:24:09.635Z,95.8
2023-09-24T16:25:40.097Z,95.8
2023-09-24T16:27:10.590Z,95.8
2023-09-24T16:28:44.158Z,95.7
2023-09-24T16:30:14.815Z,95.6
2023-09-24T16:31:45.541Z,95.9
2023-09-24T16:33:16.136Z,95.9
2023-09-24T16:34:46.723Z,95.8
2023-09-24T16:36:17.241Z,95.5
2023-09-24T16:37:47.887Z,95.8
2023-09-24T16:39:18.337Z,95.8
2023-09-24T16:40:48.906Z,95.8
2023-09-24T16:42:19.491Z,95.8
2023-09-24T16:43:50.358Z,95.8
2023-09-24T16:45:21.034Z,95.9
2023-09-24T16:46:51.696Z,95.8
2023-09-24T16:48:22.333Z,95.8
2023-09-24T16:49:53.116Z,95.9
2023-09-24T16:51:23.647Z,95.7
2023-09-24T16:52:54.114Z,96
2023-09-24T16:54:24.721Z,95.9
2023-09-24T16:55:55.331Z,95.8
2023-09-24T16:57:25.908Z,96.1
2023-09-24T16:58:56.410Z,95.8
2023-09-24T17:00:26.908Z,95.8
2023-09-24T17:01:57.476Z,95.7
2023-09-24T17:03:28.227Z,95.9
2023-09-24T17:04:59.091Z,95.6
2023-09-24T17:06:29.701Z,95.7
2023-09-24T17:08:00.363Z,95.8
2023-09-24T17:09:30.841Z,95.8
2023-09-24T17:11:01.429Z,96
2023-09-24T17:12:31.993Z,95.9
2023-09-24T17:14:02.562Z,95.9
2023-09-24T17:15:33.161Z,95.4
2023-09-24T17:17:03.772Z,95.7
2023-09-24T17:18:34.253Z,96.1
2023-09-24T17:20:04.756Z,95.8
2023-09-24T17:21:35.207Z,95.9
2023-09-24T17:23:05.692Z,96.1
2023-09-24T17:24:36.323Z,96.1
2023-09-24T17:26:06.838Z,96.1
2023-09-24T17:27:37.306Z,95.9
2023-09-24T17:29:07.823Z,96
2023-09-24T17:30:38.307Z,95.9
2023-09-24T17:32:08.949Z,96
2023-09-24T17:33:39.636Z,96
2023-09-24T17:35:10.176Z,96
2023-09-24T17:36:40.601Z,95.9
2023-09-24T17:38:11.067Z,96
2023-09-24T17:39:41.554Z,96
2023-09-24T17:41:11.962Z,95.8
2023-09-24T17:41:28.845Z,95.9
2023-09-24T17:42:59.318Z,95.8
2023-09-24T17:44:29.798Z,95.9
2023-09-24T17:46:00.408Z,96.2
2023-09-24T17:47:30.956Z,96.2
2023-09-24T17:49:01.472Z,96.1
2023-09-24T17:50:31.885Z,95.9
2023-09-24T17:52:02.321Z,95.8
2023-09-24T17:53:32.853Z,96
2023-09-24T17:55:03.263Z,96.1
2023-09-24T17:56:33.693Z,96
2023-09-24T17:58:04.143Z,95.9
2023-09-24T17:59:34.621Z,96
2023-09-24T18:01:05.057Z,96.2
2023-09-24T18:02:38.913Z,96
2023-09-24T18:04:12.630Z,95.9
2023-09-24T18:05:43.168Z,96.1
2023-09-24T18:07:13.645Z,96.1
2023-09-24T18:08:44.067Z,96
2023-09-24T18:10:14.529Z,95.9
2023-09-24T18:11:44.970Z,95.9
2023-09-24T18:13:15.371Z,96.1
2023-09-24T18:14:45.791Z,95.8
2023-09-24T18:16:16.288Z,96.1
2023-09-24T18:17:46.841Z,96
2023-09-24T18:19:17.368Z,96.2
2023-09-24T18:20:47.784Z,96
2023-09-24T18:22:18.245Z,96.1
2023-09-24T18:23:49.263Z,96.1
2023-09-24T18:25:20.387Z,96.1
2023-09-24T18:26:50.811Z,95.8
2023-09-24T18:28:21.314Z,96
2023-09-24T18:29:51.788Z,96.1
2023-09-24T18:31:22.396Z,96
2023-09-24T18:32:53.412Z,96
2023-09-24T18:34:24.030Z,95.9
2023-09-24T18:35:54.504Z,96.2
2023-09-24T18:37:24.959Z,96.1
2023-09-24T18:38:55.603Z,96.1
2023-09-24T18:40:26.221Z,96.2
2023-09-24T18:41:56.843Z,95.9
2023-09-24T18:43:27.254Z,95.8
2023-09-24T18:44:57.745Z,95.8
2023-09-24T18:46:28.270Z,96
2023-09-24T18:47:58.928Z,96.1
2023-09-24T18:49:29.550Z,96.2
2023-09-24T18:51:00.248Z,96.2
2023-09-24T18:52:30.917Z,96.1
2023-09-24T18:54:01.449Z,96
2023-09-24T18:55:32.002Z,96.1
2023-09-24T18:57:02.577Z,96.1
2023-09-24T18:58:33.470Z,96
2023-09-24T19:00:04.047Z,96.2
2023-09-24T19:01:34.548Z,96
2023-09-24T19:03:05.348Z,95.9
2023-09-24T19:04:36.411Z,95.8
2023-09-24T19:06:06.990Z,95.8
2023-09-24T19:07:37.458Z,96
2023-09-24T19:09:07.940Z,96
2023-09-24T19:10:38.407Z,96.1
2023-09-24T19:12:08.886Z,95.8
2023-09-24T19:13:43.315Z,95.9
2023-09-24T19:15:14.034Z,96.1
2023-09-24T19:16:44.597Z,96.1
2023-09-24T19:18:15.345Z,95.8
2023-09-24T19:19:45.940Z,96.1
2023-09-24T19:21:16.419Z,95.9
2023-09-24T19:22:47.015Z,95.9
2023-09-24T19:24:17.425Z,96.1
2023-09-24T19:25:48.026Z,96.2
2023-09-24T19:27:18.516Z,96
2023-09-24T19:28:48.966Z,96.3
2023-09-24T19:30:19.481Z,96
2023-09-24T19:30:36.451Z,95.9
2023-09-24T19:32:07.165Z,96
2023-09-24T19:33:37.774Z,96.2
2023-09-24T19:35:08.471Z,96.1
2023-09-24T19:36:39.045Z,96.1
2023-09-24T19:38:09.523Z,96.2
2023-09-24T19:39:39.934Z,96.2
2023-09-24T19:41:10.394Z,96
2023-09-24T19:42:40.931Z,96.1
2023-09-24T19:44:11.408Z,96
2023-09-24T19:45:41.929Z,96
2023-09-24T19:47:17.900Z,96
2023-09-24T19:48:48.942Z,96
2023-09-24T19:50:20.191Z,96.1
2023-09-24T19:51:50.677Z,95.9
2023-09-24T19:53:22.076Z,96.1
2023-09-24T19:54:52.544Z,96
2023-09-24T19:56:22.985Z,96
2023-09-24T19:57:53.381Z,96
2023-09-24T19:59:23.817Z,95.9
2023-09-24T20:00:54.302Z,95.9
2023-09-24T20:02:25.248Z,95.9
2023-09-24T20:03:55.895Z,95.8
2023-09-24T20:05:26.417Z,96.1
2023-09-24T20:06:56.831Z,96.2
2023-09-24T20:08:27.250Z,96
2023-09-24T20:09:57.675Z,96.1
2023-09-24T20:11:28.088Z,95.9
2023-09-24T20:12:58.505Z,95.9
2023-09-24T20:14:28.943Z,96.1
2023-09-24T20:15:59.422Z,95.9
2023-09-24T20:17:29.928Z,95.7